メインページ
METAR-TAF:

METAR-TAF

空港 :

ペタワワ, オンタリオ州, カナダ

緯度: 45-57N, 経度: 077-19W, 海抜: 130m

現時点の気象観測

当レポートは1時間14分前の09:00(UTC)に作成
南東の風 7kt
気温 18°C
湿度 88%
気圧 1013 hPa
視程: 14.5km
高度3500ftの曇り

METAR: CYWA 160900Z AUTO 13007KT 9SM OVC035 18/16 A2990 RMK SLP127

時間: 06:14 (10:14 UTC)

予報

当レポートは1時間8分前の09:06(UTC)に作成
予報は16日の 09時(UTC)から 16日の 18時(UTC)まで有効
南東の風 8kt
視程: 10km
高度1200ftの雲は散在している
高度3000ftの曇り
16日の 09時(UTC)から 16日の 18時(UTC)まで一時的に
視程: 8.0km
高度1200ftの千切れ雲あり
高度2500ftの曇り
弱いにわか雨, 靄
確率 30%
16日の 16時(UTC)から 16日の 18時(UTC)まで
変向風 15kt、最大30ktの突風を伴う
視程: 1.6km
高度800ftの千切れ雲あり
高度1200ftの曇り
激しい雷雨, 大雨, 靄

TAF: CYWA 160906Z 1609/1618 13008KT P6SM SCT012 OVC030 TEMPO 1609/1618 5SM -SHRA BR BKN012 OVC025 PROB30 1616/1618 VRB15G30KT 1SM +TSRA BR BKN008 OVC012 RMK FCST BASED ON AUTO OBS. NXT FCST BY 161200Z

4,000以上の空港の気象観測と天気予報(METAR報とTAF報)

利用可能な観測所は地図上に黄色い丸と赤い丸で示す。

丸の上にカーソルを重ねると観測所名を参照できる。

次にクリックすると気象観測と天気予報を参照できる。

マップの切り替え:黒色「×」印の緑ボタンをクリックして拡大、「-」印の緑ボタンをクリックして縮小、緑色の三角印をクリックして隣りの地図に切り替え


METAR-TAF: